Time;durP1;ratioP1;P1;durP2;ratioP2;P2;SDS_P1;SDS_P2;PMS_P1;PMS_P2;Temp;Humidity;BMP_temperature;BMP_pressure;BME280_temperature;BME280_humidity;BME280_pressure;Samples;Min_cycle;Max_cycle;Signal;HPM_P1;HPM_P2
2023/04/27 00:00:58;;;;;;;10.93;4.03;;;4.40;99.90;;;;;;5118737;27;20130;-66
2023/04/27 00:03:24;;;;;;;11.57;5.00;;;4.40;99.90;;;;;;5118844;28;20089;-65
2023/04/27 00:05:50;;;;;;;10.05;4.13;;;4.40;99.90;;;;;;5120760;27;20526;-66
2023/04/27 00:08:16;;;;;;;10.35;4.55;;;4.50;99.90;;;;;;5120000;28;20114;-65
2023/04/27 00:10:41;;;;;;;7.10;4.25;;;4.50;99.90;;;;;;5119959;27;20071;-66
2023/04/27 00:13:07;;;;;;;9.00;4.38;;;4.40;99.90;;;;;;5120880;27;20074;-65
2023/04/27 00:15:32;;;;;;;11.30;4.03;;;4.40;99.90;;;;;;5119037;27;20039;-66
2023/04/27 00:17:58;;;;;;;9.40;3.83;;;4.40;99.90;;;;;;5112463;28;20031;-66
2023/04/27 00:20:24;;;;;;;10.88;3.50;;;4.40;99.90;;;;;;5106284;28;20054;-66
2023/04/27 00:22:49;;;;;;;7.38;3.55;;;4.40;99.90;;;;;;5106111;28;20054;-67
2023/04/27 00:25:15;;;;;;;12.98;4.35;;;4.40;99.90;;;;;;5101052;28;20032;-66
2023/04/27 00:27:41;;;;;;;7.95;3.70;;;4.40;99.90;;;;;;5105997;28;20039;-66
2023/04/27 00:30:07;;;;;;;6.07;4.00;;;4.40;99.90;;;;;;5106669;28;20284;-65
2023/04/27 00:32:32;;;;;;;9.50;3.65;;;4.40;99.90;;;;;;5102628;28;20506;-65
2023/04/27 00:34:58;;;;;;;9.57;3.72;;;4.40;99.90;;;;;;5095019;28;20036;-66
2023/04/27 00:37:24;;;;;;;9.23;4.18;;;4.50;99.90;;;;;;5107553;28;20119;-65
2023/04/27 00:39:49;;;;;;;11.02;4.22;;;4.40;99.90;;;;;;5107855;28;20502;-65
2023/04/27 00:42:18;;;;;;;5.85;3.42;;;4.40;99.90;;;;;;5102588;28;20036;-66
2023/04/27 00:44:45;;;;;;;10.95;3.90;;;4.40;99.90;;;;;;5104510;28;20035;-65
2023/04/27 00:47:11;;;;;;;13.77;4.18;;;4.30;99.90;;;;;;5106941;28;20044;-65
2023/04/27 00:49:37;;;;;;;9.80;4.57;;;4.30;99.90;;;;;;5106333;28;20038;-67
2023/04/27 00:52:03;;;;;;;7.25;4.22;;;4.20;99.90;;;;;;5086241;28;20040;-66
2023/04/27 00:54:29;;;;;;;9.13;4.32;;;4.20;99.90;;;;;;5106560;28;20058;-66
2023/04/27 00:56:54;;;;;;;10.10;4.15;;;4.20;99.90;;;;;;5106942;28;20069;-66
2023/04/27 00:59:20;;;;;;;10.02;4.07;;;4.20;99.90;;;;;;5104497;28;21178;-66
2023/04/27 01:01:47;;;;;;;7.50;4.20;;;4.10;99.90;;;;;;5103755;27;20130;-66
2023/04/27 01:04:12;;;;;;;8.13;4.30;;;4.10;99.90;;;;;;5105871;28;20043;-66
2023/04/27 01:06:38;;;;;;;9.65;5.22;;;4.00;99.90;;;;;;5106429;28;20040;-66
2023/04/27 01:09:05;;;;;;;8.88;4.32;;;3.90;99.90;;;;;;5106601;28;20035;-66
2023/04/27 01:11:31;;;;;;;9.88;4.20;;;3.90;99.90;;;;;;5104037;28;20035;-66
2023/04/27 01:14:00;;;;;;;9.52;3.78;;;3.90;99.90;;;;;;5106368;28;20044;-66
2023/04/27 01:16:27;;;;;;;11.18;4.05;;;3.90;99.90;;;;;;5107006;28;20044;-67
2023/04/27 01:18:53;;;;;;;8.60;3.65;;;3.80;99.90;;;;;;5105519;28;20058;-66
2023/04/27 01:21:19;;;;;;;10.18;4.68;;;3.80;99.90;;;;;;5105147;28;20395;-67
2023/04/27 01:23:44;;;;;;;8.07;4.35;;;3.70;99.90;;;;;;5104899;28;20042;-66
2023/04/27 01:26:12;;;;;;;8.38;5.25;;;3.70;99.90;;;;;;5105770;28;20157;-66
2023/04/27 01:28:38;;;;;;;14.07;5.68;;;3.60;99.90;;;;;;5103898;28;20165;-67
2023/04/27 01:31:03;;;;;;;8.82;5.00;;;3.60;99.90;;;;;;5104376;27;20147;-65
2023/04/27 01:33:29;;;;;;;13.73;5.28;;;3.50;99.90;;;;;;5105333;28;20048;-66
2023/04/27 01:35:55;;;;;;;9.48;4.85;;;3.50;99.90;;;;;;5093836;28;20523;-66
2023/04/27 01:38:21;;;;;;;7.88;4.50;;;3.40;99.90;;;;;;5107115;28;20042;-67
2023/04/27 01:40:46;;;;;;;10.63;4.82;;;3.40;99.90;;;;;;5106050;27;20062;-66
2023/04/27 01:43:12;;;;;;;10.73;4.45;;;3.40;99.90;;;;;;5107771;28;20167;-66
2023/04/27 01:45:37;;;;;;;6.32;4.30;;;3.30;99.90;;;;;;5106180;28;20062;-66
2023/04/27 01:48:03;;;;;;;8.70;4.47;;;3.30;99.90;;;;;;5106829;28;20081;-66
2023/04/27 01:50:29;;;;;;;7.65;4.13;;;3.20;99.90;;;;;;5105234;28;20104;-66
2023/04/27 01:52:54;;;;;;;10.32;4.45;;;3.20;99.90;;;;;;5106013;28;20046;-66
2023/04/27 01:55:20;;;;;;;12.90;4.25;;;3.10;99.90;;;;;;5106403;28;20036;-68
2023/04/27 01:57:45;;;;;;;8.50;4.82;;;3.10;99.90;;;;;;5105440;28;20036;-67
2023/04/27 02:00:12;;;;;;;11.60;4.90;;;3.00;99.90;;;;;;5104773;28;20062;-66
2023/04/27 02:02:37;;;;;;;7.50;4.22;;;2.90;99.90;;;;;;5100412;28;20046;-66
2023/04/27 02:05:03;;;;;;;9.10;5.07;;;2.90;99.90;;;;;;5106246;28;20035;-65
2023/04/27 02:07:28;;;;;;;10.70;4.85;;;2.90;99.90;;;;;;5105972;28;20375;-65
2023/04/27 02:09:54;;;;;;;12.18;5.63;;;2.80;99.90;;;;;;5105045;28;20040;-65
2023/04/27 02:12:20;;;;;;;11.02;5.13;;;2.80;99.90;;;;;;5079412;28;20047;-66
2023/04/27 02:14:45;;;;;;;12.88;5.15;;;2.70;99.90;;;;;;5096974;28;20872;-67
2023/04/27 02:17:11;;;;;;;12.90;5.65;;;2.70;99.90;;;;;;5104621;28;20046;-66
2023/04/27 02:19:37;;;;;;;10.70;4.82;;;2.70;99.90;;;;;;5105139;28;20027;-66
2023/04/27 02:22:02;;;;;;;12.55;5.65;;;2.60;99.90;;;;;;5104426;28;20487;-66
2023/04/27 02:24:29;;;;;;;12.48;5.18;;;2.60;99.90;;;;;;5105831;28;20517;-66
2023/04/27 02:26:54;;;;;;;16.65;5.30;;;2.60;99.90;;;;;;5105315;28;20078;-66
2023/04/27 02:29:20;;;;;;;8.75;4.82;;;2.50;99.90;;;;;;5105263;28;20071;-67
2023/04/27 02:31:46;;;;;;;11.20;5.50;;;2.50;99.90;;;;;;5101842;28;20134;-67
2023/04/27 02:34:11;;;;;;;13.23;5.55;;;2.50;99.90;;;;;;5105522;28;20028;-66
2023/04/27 02:36:37;;;;;;;9.20;5.60;;;2.40;99.90;;;;;;5105738;28;20040;-66
2023/04/27 02:39:02;;;;;;;10.85;5.88;;;2.40;99.90;;;;;;5105050;28;20039;-67
2023/04/27 02:41:31;;;;;;;13.25;5.35;;;2.40;99.90;;;;;;5104499;28;20058;-65
2023/04/27 02:43:57;;;;;;;12.38;5.93;;;2.30;99.90;;;;;;5105477;28;20814;-66
2023/04/27 02:46:22;;;;;;;11.35;5.07;;;2.20;99.90;;;;;;5105424;28;20043;-67
2023/04/27 02:48:48;;;;;;;13.80;5.65;;;2.20;99.90;;;;;;5104861;28;20040;-66
2023/04/27 02:51:14;;;;;;;11.20;5.40;;;2.10;99.90;;;;;;5103788;28;20040;-68
2023/04/27 02:53:39;;;;;;;11.68;5.55;;;2.10;99.90;;;;;;5104798;28;20050;-67
2023/04/27 02:56:05;;;;;;;13.13;5.57;;;2.00;99.90;;;;;;5104277;28;20123;-66
2023/04/27 02:58:31;;;;;;;12.13;5.25;;;2.00;99.90;;;;;;5104179;28;20043;-65
2023/04/27 03:00:56;;;;;;;10.88;5.65;;;2.00;99.90;;;;;;5084663;28;20040;-67
2023/04/27 03:03:23;;;;;;;14.15;6.63;;;2.00;99.90;;;;;;5105474;28;20038;-65
2023/04/27 03:05:48;;;;;;;14.70;6.30;;;1.90;99.90;;;;;;5105770;28;20048;-66
2023/04/27 03:08:14;;;;;;;11.63;6.45;;;2.00;99.90;;;;;;5103965;28;20031;-65
2023/04/27 03:10:40;;;;;;;16.85;6.00;;;1.90;99.90;;;;;;5099085;28;20043;-66
2023/04/27 03:13:06;;;;;;;12.45;6.53;;;1.90;99.90;;;;;;5100465;28;20555;-65
2023/04/27 03:15:31;;;;;;;15.93;6.18;;;1.80;99.90;;;;;;5098492;28;20043;-65
2023/04/27 03:17:57;;;;;;;16.83;7.43;;;1.80;99.90;;;;;;5101826;28;20119;-65
2023/04/27 03:20:22;;;;;;;14.90;6.20;;;1.80;99.90;;;;;;5101290;28;20042;-65
2023/04/27 03:22:48;;;;;;;13.95;6.03;;;1.80;99.90;;;;;;5100829;28;20035;-66
2023/04/27 03:25:13;;;;;;;13.60;6.57;;;1.70;99.90;;;;;;5103712;28;20043;-66
2023/04/27 03:27:39;;;;;;;10.32;5.80;;;1.70;99.90;;;;;;5104164;28;20032;-66
2023/04/27 03:30:06;;;;;;;15.20;6.60;;;1.70;99.90;;;;;;5104662;28;20038;-66
2023/04/27 03:32:31;;;;;;;14.90;7.20;;;1.60;99.90;;;;;;5097979;28;20523;-65
2023/04/27 03:34:58;;;;;;;11.18;6.30;;;1.60;99.90;;;;;;5093503;28;20071;-65
2023/04/27 03:37:23;;;;;;;19.63;7.75;;;1.60;99.90;;;;;;5101746;28;20043;-65
2023/04/27 03:39:49;;;;;;;11.82;6.43;;;1.50;99.90;;;;;;5104077;28;20043;-65
2023/04/27 03:42:14;;;;;;;16.90;6.50;;;1.50;99.90;;;;;;5102647;28;20028;-65
2023/04/27 03:44:40;;;;;;;15.55;6.68;;;1.50;99.90;;;;;;5104185;28;20043;-64
2023/04/27 03:47:08;;;;;;;13.73;6.07;;;1.50;99.90;;;;;;5104278;28;20547;-65
2023/04/27 03:49:36;;;;;;;13.48;6.88;;;1.40;99.90;;;;;;5100422;28;20050;-66
2023/04/27 03:52:02;;;;;;;19.00;7.57;;;1.40;99.90;;;;;;5101377;28;20031;-65
2023/04/27 03:54:30;;;;;;;17.38;7.93;;;1.40;99.90;;;;;;5104271;28;20084;-65
2023/04/27 03:56:55;;;;;;;16.48;7.38;;;1.40;99.90;;;;;;5103008;28;20127;-66
2023/04/27 03:59:21;;;;;;;13.32;7.30;;;1.40;99.90;;;;;;5105392;28;20762;-65
2023/04/27 04:01:46;;;;;;;18.33;7.85;;;1.30;99.90;;;;;;5105764;28;20058;-65
2023/04/27 04:04:12;;;;;;;14.05;7.35;;;1.30;99.90;;;;;;5107870;28;20122;-65
2023/04/27 04:06:38;;;;;;;20.10;8.38;;;1.30;99.90;;;;;;5108226;28;20118;-65
2023/04/27 04:09:03;;;;;;;14.52;7.43;;;1.30;99.90;;;;;;5107465;28;20679;-65
2023/04/27 04:11:29;;;;;;;13.65;6.82;;;1.20;99.90;;;;;;5106359;28;20812;-66
2023/04/27 04:13:55;;;;;;;15.65;6.80;;;1.20;99.90;;;;;;5107640;28;20108;-67
2023/04/27 04:16:20;;;;;;;16.02;7.20;;;1.20;99.90;;;;;;5107815;28;20583;-66
2023/04/27 04:18:46;;;;;;;13.52;6.97;;;1.10;99.90;;;;;;5107538;28;20202;-66
2023/04/27 04:21:11;;;;;;;16.83;6.28;;;1.10;99.90;;;;;;5105753;28;20122;-66
2023/04/27 04:23:37;;;;;;;15.20;7.30;;;1.10;99.90;;;;;;5107185;28;20131;-66
2023/04/27 04:26:03;;;;;;;16.27;7.95;;;1.10;99.90;;;;;;5105961;28;20450;-66
2023/04/27 04:28:29;;;;;;;15.75;8.02;;;1.10;99.90;;;;;;5106563;28;20053;-65
2023/04/27 04:30:55;;;;;;;17.30;8.40;;;1.20;99.90;;;;;;5104668;27;20050;-66
2023/04/27 04:33:21;;;;;;;15.23;8.40;;;1.20;99.90;;;;;;5107194;28;20031;-66
2023/04/27 04:35:46;;;;;;;18.65;8.65;;;1.30;99.90;;;;;;5107588;28;20046;-65
2023/04/27 04:38:12;;;;;;;16.88;7.60;;;1.30;99.90;;;;;;5106882;28;20377;-66
2023/04/27 04:40:39;;;;;;;18.70;7.78;;;1.40;99.90;;;;;;5106252;28;20039;-66
2023/04/27 04:43:05;;;;;;;19.08;7.88;;;1.50;99.90;;;;;;5105982;28;20946;-65
2023/04/27 04:45:31;;;;;;;18.38;7.75;;;1.60;99.90;;;;;;5106682;28;20047;-65
2023/04/27 04:47:59;;;;;;;20.05;7.55;;;1.80;99.90;;;;;;5107344;28;20118;-66
2023/04/27 04:50:25;;;;;;;13.10;6.85;;;2.10;99.90;;;;;;5106697;28;20089;-65
2023/04/27 04:52:51;;;;;;;14.82;6.60;;;2.40;99.90;;;;;;5103556;28;20035;-66
2023/04/27 04:55:17;;;;;;;16.10;7.13;;;3.00;99.90;;;;;;5102713;28;20067;-66
2023/04/27 04:57:42;;;;;;;13.85;6.38;;;3.40;99.90;;;;;;5103416;28;20046;-66
2023/04/27 05:00:12;;;;;;;13.40;5.82;;;3.70;99.90;;;;;;5102650;28;20088;-65
2023/04/27 05:02:39;;;;;;;11.38;6.18;;;4.10;99.90;;;;;;5100600;28;20043;-65
2023/04/27 05:05:05;;;;;;;14.25;7.43;;;4.60;99.90;;;;;;5106741;28;20050;-65
2023/04/27 05:07:32;;;;;;;13.68;5.65;;;5.10;99.90;;;;;;5103575;28;20043;-66
2023/04/27 05:09:58;;;;;;;20.52;6.22;;;5.90;99.90;;;;;;5106471;28;20123;-67
2023/04/27 05:12:23;;;;;;;;;;;6.50;99.90;;;;;;5103704;28;20131;-66
2023/04/27 05:14:50;;;;;;;13.15;7.13;;;7.00;99.90;;;;;;5104415;28;20006;-65
2023/04/27 05:17:16;;;;;;;11.70;6.20;;;7.30;99.90;;;;;;5106161;28;20119;-65
2023/04/27 05:19:42;;;;;;;;;;;6.90;99.90;;;;;;5106918;28;20546;-67
2023/04/27 05:22:07;;;;;;;11.05;6.03;;;6.80;99.90;;;;;;5106614;28;19922;-65
2023/04/27 05:24:33;;;;;;;;;;;6.90;99.90;;;;;;5105255;28;20043;-66
2023/04/27 05:26:58;;;;;;;10.75;6.03;;;6.70;99.90;;;;;;5104719;28;19923;-66
2023/04/27 05:29:24;;;;;;;;;;;7.00;99.90;;;;;;5103045;28;20609;-66
2023/04/27 05:31:49;;;;;;;14.63;7.13;;;7.90;99.90;;;;;;5095707;28;19912;-65
2023/04/27 05:34:15;;;;;;;16.77;7.82;;;8.50;98.90;;;;;;5101218;28;20043;-66
2023/04/27 05:36:41;;;;;;;;;;;8.60;97.80;;;;;;5104394;28;20410;-67
2023/04/27 05:39:07;;;;;;;23.90;7.40;;;8.90;97.50;;;;;;5097671;28;19916;-67
2023/04/27 05:41:32;;;;;;;;;;;9.20;98.30;;;;;;5090397;28;20036;-69
2023/04/27 05:43:58;;;;;;;9.73;6.20;;;10.10;95.70;;;;;;5103133;28;20003;-66
2023/04/27 05:46:23;;;;;;;;;;;10.10;95.00;;;;;;5106144;28;20051;-68
2023/04/27 05:48:49;;;;;;;17.00;6.95;;;9.70;95.00;;;;;;5102350;28;20298;-66
2023/04/27 05:51:15;;;;;;;;;;;9.80;96.20;;;;;;5105317;28;20047;-66
2023/04/27 05:53:41;;;;;;;12.07;6.75;;;10.50;95.20;;;;;;5102066;28;19960;-64
2023/04/27 05:56:06;;;;;;;;;;;10.20;94.40;;;;;;5105914;28;20035;-64
2023/04/27 05:58:32;;;;;;;10.20;6.72;;;9.90;95.90;;;;;;5105358;28;19922;-64
2023/04/27 06:00:59;;;;;;;;;;;9.90;95.80;;;;;;5103092;28;20074;-66
2023/04/27 06:03:25;;;;;;;13.43;7.30;;;10.00;95.80;;;;;;5105046;28;19920;-65
2023/04/27 06:05:59;;;;;;;;;;;9.70;96.80;;;;;;5106010;28;20047;-67
2023/04/27 06:08:26;;;;;;;13.82;6.97;;;10.00;96.40;;;;;;5084283;28;20697;-65
2023/04/27 06:10:52;;;;;;;11.77;7.25;;;10.70;94.90;;;;;;5091357;28;20643;-66
2023/04/27 06:13:18;;;;;;;16.25;8.23;;;11.20;94.40;;;;;;5101837;28;20028;-64
2023/04/27 06:15:43;;;;;;;;;;;11.90;94.70;;;;;;5101563;28;20119;-64
2023/04/27 06:18:09;;;;;;;16.05;7.63;;;11.90;91.40;;;;;;5103655;28;19919;-65
2023/04/27 06:20:35;;;;;;;19.35;9.98;;;10.90;93.60;;;;;;5106515;28;20046;-65
2023/04/27 06:23:00;;;;;;;;;;;10.00;95.40;;;;;;5106834;28;20150;-65
2023/04/27 06:25:27;;;;;;;16.77;9.25;;;10.60;95.50;;;;;;5106000;28;19916;-64
2023/04/27 06:27:54;;;;;;;24.73;9.02;;;11.60;93.40;;;;;;5106708;28;20067;-64
2023/04/27 06:30:20;;;;;;;17.48;9.27;;;12.60;92.10;;;;;;5102351;27;20040;-64
2023/04/27 06:32:45;;;;;;;;;;;14.00;90.90;;;;;;5103216;28;20040;-64
2023/04/27 06:35:11;;;;;;;16.58;9.30;;;14.90;87.30;;;;;;5105364;28;19915;-65
2023/04/27 06:37:38;;;;;;;16.42;9.75;;;14.60;82.90;;;;;;5105926;28;20044;-65
2023/04/27 06:40:04;;;;;;;19.17;8.95;;;14.40;85.20;;;;;;5104121;28;20045;-65
2023/04/27 06:42:29;;;;;;;16.88;9.23;;;13.70;85.90;;;;;;5103294;28;20464;-64
2023/04/27 06:44:55;;;;;;;;;;;13.40;88.40;;;;;;5102253;28;20049;-66
2023/04/27 06:47:21;;;;;;;17.15;8.13;;;12.10;90.30;;;;;;5100652;28;20357;-64
2023/04/27 06:49:47;;;;;;;17.95;9.90;;;10.70;92.60;;;;;;5104642;28;20051;-65
2023/04/27 06:52:13;;;;;;;;;;;10.40;93.80;;;;;;5101061;28;20039;-65
2023/04/27 06:54:38;;;;;;;17.05;9.60;;;10.00;94.60;;;;;;5099629;28;20401;-65
2023/04/27 06:57:05;;;;;;;;;;;9.60;95.00;;;;;;5100317;28;20043;-64
2023/04/27 06:59:31;;;;;;;19.03;8.90;;;9.70;95.10;;;;;;5102219;28;19919;-65
2023/04/27 07:01:56;;;;;;;;;;;10.00;95.20;;;;;;5102508;28;20066;-65
2023/04/27 07:04:22;;;;;;;27.33;10.70;;;9.90;95.20;;;;;;5104389;28;20094;-66
2023/04/27 07:06:48;;;;;;;19.77;10.52;;;10.10;95.10;;;;;;5104506;28;20043;-64
2023/04/27 07:09:14;;;;;;;;;;;10.60;94.70;;;;;;5106054;28;20104;-65
2023/04/27 07:11:39;;;;;;;19.73;9.75;;;11.00;93.30;;;;;;5101650;28;20306;-65
2023/04/27 07:14:05;;;;;;;;;;;11.10;93.20;;;;;;5101934;28;20644;-65
2023/04/27 07:16:31;;;;;;;22.33;11.50;;;11.00;93.00;;;;;;5102548;28;19921;-66
2023/04/27 07:18:56;;;;;;;;;;;10.50;93.60;;;;;;5103881;28;20044;-65
2023/04/27 07:21:22;;;;;;;18.48;10.65;;;10.30;94.80;;;;;;5102788;28;20029;-64
2023/04/27 07:23:47;;;;;;;;;;;9.90;95.30;;;;;;5104777;28;20032;-65
2023/04/27 07:26:13;;;;;;;20.52;10.73;;;10.30;95.40;;;;;;5105145;28;19941;-64
2023/04/27 07:28:39;;;;;;;20.15;9.50;;;10.30;95.00;;;;;;5107354;28;20119;-64
2023/04/27 07:31:05;;;;;;;;;;;10.20;94.30;;;;;;5106830;27;20046;-64
2023/04/27 07:33:31;;;;;;;20.42;9.85;;;10.30;94.90;;;;;;5106792;28;19950;-64
2023/04/27 07:35:57;;;;;;;19.65;10.15;;;10.50;94.50;;;;;;5098308;28;20554;-65
2023/04/27 07:38:23;;;;;;;;;;;10.90;94.60;;;;;;5107309;28;20052;-65
2023/04/27 07:40:50;;;;;;;16.15;9.35;;;11.40;93.20;;;;;;5105919;28;19938;-65
2023/04/27 07:43:17;;;;;;;;;;;11.70;92.10;;;;;;5107235;28;20478;-65
2023/04/27 07:45:42;;;;;;;22.05;9.98;;;11.30;91.60;;;;;;5107963;28;19955;-65
2023/04/27 07:48:09;;;;;;;18.75;9.52;;;10.50;93.20;;;;;;5108628;28;20760;-65
2023/04/27 07:50:35;;;;;;;19.20;8.77;;;10.00;93.80;;;;;;5106421;28;20031;-65
2023/04/27 07:53:00;;;;;;;;;;;9.50;95.80;;;;;;5108512;28;20125;-66
2023/04/27 07:55:26;;;;;;;20.00;8.75;;;10.00;95.60;;;;;;5108135;28;19920;-65
2023/04/27 07:57:52;;;;;;;17.73;8.98;;;10.10;93.40;;;;;;5107752;28;20039;-65
2023/04/27 08:00:19;;;;;;;16.83;9.35;;;10.40;95.00;;;;;;5106968;28;20066;-65
2023/04/27 08:02:45;;;;;;;15.50;8.18;;;12.30;92.30;;;;;;5104024;28;20054;-66
2023/04/27 08:05:10;;;;;;;;;;;13.00;91.50;;;;;;5104650;27;20039;-66
2023/04/27 08:07:36;;;;;;;18.60;7.80;;;14.80;88.70;;;;;;5104356;28;20966;-66
2023/04/27 08:10:01;;;;;;;12.00;8.35;;;16.10;84.50;;;;;;5105845;28;20038;-65
2023/04/27 08:12:27;;;;;;;13.55;8.32;;;17.00;79.20;;;;;;5107697;28;20043;-65
2023/04/27 08:14:53;;;;;;;12.25;7.63;;;17.60;75.60;;;;;;5107961;28;20036;-65
2023/04/27 08:17:20;;;;;;;13.45;7.72;;;16.80;75.10;;;;;;5107397;28;20051;-65
2023/04/27 08:19:46;;;;;;;19.58;8.77;;;16.60;76.40;;;;;;5107086;28;20042;-65
2023/04/27 08:22:12;;;;;;;13.77;8.52;;;15.40;77.20;;;;;;5103568;28;20066;-64
2023/04/27 08:24:37;;;;;;;13.77;7.97;;;13.60;79.00;;;;;;5101834;28;20403;-65
2023/04/27 08:27:05;;;;;;;16.15;8.50;;;12.30;83.60;;;;;;5104921;28;20031;-65
2023/04/27 08:29:30;;;;;;;16.45;7.45;;;11.30;85.70;;;;;;5107855;28;20035;-65
2023/04/27 08:31:57;;;;;;;;;;;10.60;88.20;;;;;;5103796;28;20042;-65
2023/04/27 08:34:23;;;;;;;12.02;7.40;;;10.10;89.90;;;;;;5100745;28;20287;-65
2023/04/27 08:36:48;;;;;;;;;;;9.90;91.40;;;;;;5107847;28;20043;-64
2023/04/27 08:39:14;;;;;;;19.25;7.05;;;10.00;91.10;;;;;;5107669;28;19919;-64
2023/04/27 08:41:43;;;;;;;13.85;7.20;;;9.70;92.10;;;;;;5106707;28;20039;-66
2023/04/27 08:44:09;;;;;;;11.75;7.72;;;9.70;91.30;;;;;;5107956;28;20043;-66
2023/04/27 08:46:35;;;;;;;;;;;9.60;91.40;;;;;;5107585;28;20039;-65
2023/04/27 08:49:01;;;;;;;18.65;7.68;;;9.60;92.00;;;;;;5107426;28;19915;-65
2023/04/27 08:51:27;;;;;;;;;;;9.50;91.20;;;;;;5104280;28;20503;-64
2023/04/27 08:53:55;;;;;;;9.95;6.68;;;9.00;92.10;;;;;;5106040;28;19919;-64
2023/04/27 08:56:23;;;;;;;14.07;7.20;;;9.20;92.30;;;;;;5107404;28;20083;-64
2023/04/27 08:58:53;;;;;;;14.02;8.43;;;9.40;92.10;;;;;;5106220;28;20036;-64
2023/04/27 09:01:20;;;;;;;16.83;8.02;;;9.40;92.30;;;;;;5103782;28;20039;-64
2023/04/27 09:03:46;;;;;;;13.55;7.43;;;9.20;91.90;;;;;;5105135;28;20054;-64
2023/04/27 09:06:13;;;;;;;18.60;7.97;;;9.00;91.90;;;;;;5106655;28;20044;-64
2023/04/27 09:08:49;;;;;;;16.35;8.05;;;8.80;92.90;;;;;;5107285;28;20044;-66
2023/04/27 09:11:28;;;;;;;14.45;8.10;;;8.70;92.50;;;;;;5104842;28;20106;-64
2023/04/27 09:13:54;;;;;;;18.50;7.63;;;8.50;93.00;;;;;;5104262;28;20180;-65
2023/04/27 09:16:23;;;;;;;;;;;8.70;92.90;;;;;;5105056;28;20723;-65
2023/04/27 09:18:49;;;;;;;13.32;7.25;;;8.70;93.80;;;;;;5107241;28;19916;-64
2023/04/27 09:21:22;;;;;;;;;;;8.90;93.60;;;;;;5105644;28;20114;-65
2023/04/27 09:23:48;;;;;;;16.77;8.30;;;8.80;93.70;;;;;;5105671;28;19919;-64
2023/04/27 09:26:18;;;;;;;;;;;8.90;93.10;;;;;;5107633;28;20055;-65
2023/04/27 09:28:47;;;;;;;18.70;8.90;;;8.80;93.30;;;;;;5106317;28;20059;-65
2023/04/27 09:31:13;;;;;;;17.45;8.13;;;8.90;93.00;;;;;;5102001;27;20081;-65
2023/04/27 09:33:38;;;;;;;;;;;8.90;93.10;;;;;;5106397;28;20491;-65
2023/04/27 09:36:05;;;;;;;13.25;8.02;;;8.90;92.80;;;;;;5103685;28;19926;-66
2023/04/27 09:38:32;;;;;;;18.67;9.23;;;9.20;92.60;;;;;;5107071;28;20046;-66
2023/04/27 09:40:58;;;;;;;17.05;8.57;;;9.30;92.70;;;;;;5104401;28;20498;-65
2023/04/27 09:43:26;;;;;;;18.25;9.05;;;9.40;92.40;;;;;;5102774;28;20074;-65
2023/04/27 09:45:56;;;;;;;19.80;9.23;;;9.40;93.00;;;;;;5104860;28;20039;-65
2023/04/27 09:48:23;;;;;;;20.80;9.10;;;9.50;92.50;;;;;;5105423;28;20063;-66
2023/04/27 09:50:50;;;;;;;17.35;8.18;;;9.70;92.70;;;;;;5104936;28;20043;-65
2023/04/27 09:53:52;;;;;;;21.85;8.00;;;9.90;92.90;;;;;;5106029;28;20061;-65
2023/04/27 09:56:51;;;;;;;18.92;8.93;;;10.20;92.30;;;;;;5060578;28;20052;-67
2023/04/27 09:59:43;;;;;;;17.13;8.98;;;10.30;93.00;;;;;;5103375;28;20109;-64
2023/04/27 10:02:12;;;;;;;15.45;9.02;;;10.20;93.10;;;;;;5095171;28;20035;-65
2023/04/27 10:05:02;;;;;;;20.50;8.60;;;10.40;93.20;;;;;;5106699;27;20491;-65
2023/04/27 10:07:28;;;;;;;14.80;8.30;;;10.60;92.30;;;;;;5099182;28;20048;-65
2023/04/27 10:09:59;;;;;;;19.95;8.73;;;10.60;93.20;;;;;;5107368;28;20128;-65
2023/04/27 10:12:54;;;;;;;21.27;8.35;;;10.90;93.40;;;;;;5102495;28;20035;-65
2023/04/27 10:15:25;;;;;;;22.45;8.70;;;11.10;92.00;;;;;;5107223;27;20054;-65
2023/04/27 10:17:57;;;;;;;17.13;9.43;;;11.00;90.40;;;;;;5103669;28;20055;-66
2023/04/27 10:20:36;;;;;;;15.05;7.95;;;10.60;90.80;;;;;;5102567;28;20084;-65
2023/04/27 10:23:02;;;;;;;17.25;9.18;;;10.80;90.30;;;;;;5104556;28;20106;-64
2023/04/27 10:25:39;;;;;;;;;;;10.80;91.30;;;;;;5105759;28;20644;-65
2023/04/27 10:28:06;;;;;;;17.30;9.07;;;10.30;90.50;;;;;;5098118;28;19985;-65
2023/04/27 10:30:33;;;;;;;17.05;8.23;;;10.00;92.60;;;;;;5103052;27;20066;-65
2023/04/27 10:33:04;;;;;;;15.30;8.20;;;10.20;90.90;;;;;;5104631;28;20043;-65
2023/04/27 10:35:37;;;;;;;23.92;8.45;;;10.30;90.90;;;;;;5105838;28;20115;-65
2023/04/27 10:38:08;;;;;;;23.88;9.27;;;10.60;91.60;;;;;;5104578;28;20044;-65
2023/04/27 10:40:34;;;;;;;20.45;10.15;;;10.80;91.90;;;;;;5104392;28;20405;-65
2023/04/27 10:43:14;;;;;;;21.75;10.02;;;10.90;90.30;;;;;;5102826;28;20035;-65
2023/04/27 10:45:41;;;;;;;19.85;10.00;;;10.70;89.70;;;;;;5101269;28;20112;-66
2023/04/27 10:48:07;;;;;;;22.33;9.20;;;10.40;90.40;;;;;;5104145;28;20074;-65
2023/04/27 10:50:33;;;;;;;;;;;10.30;92.00;;;;;;5104012;28;20110;-65
2023/04/27 10:53:04;;;;;;;14.35;7.85;;;10.00;92.30;;;;;;5106839;28;19919;-65
2023/04/27 10:55:30;;;;;;;19.15;7.55;;;10.00;91.20;;;;;;5107683;28;20039;-66
2023/04/27 10:57:57;;;;;;;17.50;8.85;;;10.30;92.60;;;;;;5106727;28;20035;-65
2023/04/27 11:00:27;;;;;;;15.30;8.55;;;10.50;91.30;;;;;;5105262;28;20047;-65
2023/04/27 11:02:55;;;;;;;24.83;9.05;;;10.70;91.40;;;;;;5104264;28;20051;-65
2023/04/27 11:05:24;;;;;;;18.23;8.15;;;10.40;90.30;;;;;;5105718;28;20110;-65
2023/04/27 11:07:50;;;;;;;19.90;9.20;;;10.50;91.30;;;;;;5104733;28;20044;-66
2023/04/27 11:10:17;;;;;;;15.75;8.82;;;10.60;92.10;;;;;;5104989;28;20134;-65
2023/04/27 11:12:44;;;;;;;21.63;8.38;;;10.50;90.30;;;;;;5103663;28;20048;-64
2023/04/27 11:15:11;;;;;;;18.77;8.63;;;10.40;91.20;;;;;;5104375;28;20066;-65
2023/04/27 11:17:37;;;;;;;16.42;8.15;;;10.20;90.80;;;;;;5104309;28;20051;-64
2023/04/27 11:20:07;;;;;;;;;;;10.20;91.50;;;;;;5105925;28;20201;-64
2023/04/27 11:22:34;;;;;;;16.25;6.93;;;10.40;90.80;;;;;;5104637;28;19915;-65
2023/04/27 11:25:00;;;;;;;17.90;8.55;;;10.50;90.90;;;;;;5104756;28;20060;-69
2023/04/27 11:27:36;;;;;;;24.95;8.75;;;10.40;90.40;;;;;;5104822;28;20042;-66
2023/04/27 11:30:02;;;;;;;;;;;10.70;91.20;;;;;;5101884;28;20071;-66
2023/04/27 11:32:28;;;;;;;18.70;9.68;;;10.80;90.60;;;;;;5096396;28;19963;-64
2023/04/27 11:34:53;;;;;;;14.65;7.88;;;10.60;90.60;;;;;;5103271;28;20030;-63
2023/04/27 11:37:20;;;;;;;;;;;10.40;90.30;;;;;;5099970;28;20050;-65
2023/04/27 11:39:46;;;;;;;19.90;7.47;;;10.60;91.00;;;;;;5103404;28;19919;-63
2023/04/27 11:42:20;;;;;;;;;;;11.00;91.40;;;;;;5101068;28;20413;-64
2023/04/27 11:44:57;;;;;;;16.00;8.63;;;11.10;90.90;;;;;;5091971;28;20674;-64
2023/04/27 11:47:24;;;;;;;;;;;10.90;90.30;;;;;;5094341;28;20044;-64
2023/04/27 11:49:54;;;;;;;13.70;8.07;;;11.10;91.90;;;;;;5101266;28;19995;-64
2023/04/27 11:52:22;;;;;;;15.65;8.52;;;11.30;90.70;;;;;;5080214;28;20997;-64
2023/04/27 11:54:49;;;;;;;16.63;8.48;;;11.10;90.50;;;;;;5088692;28;20047;-63
2023/04/27 11:57:15;;;;;;;21.75;9.25;;;10.70;90.30;;;;;;5092413;28;20055;-64
2023/04/27 11:59:41;;;;;;;18.35;8.13;;;10.50;90.90;;;;;;5099548;28;20044;-65
2023/04/27 12:02:07;;;;;;;;;;;10.20;90.50;;;;;;5091707;28;20040;-63
2023/04/27 12:04:32;;;;;;;15.95;8.55;;;10.20;91.40;;;;;;5092868;28;20289;-65
2023/04/27 12:07:00;;;;;;;;;;;10.10;90.70;;;;;;5094519;28;20068;-65
2023/04/27 12:09:25;;;;;;;20.00;9.52;;;10.00;91.40;;;;;;5086078;28;19973;-65
2023/04/27 12:11:53;;;;;;;;;;;10.00;91.20;;;;;;5082671;28;20047;-63
2023/04/27 12:14:19;;;;;;;15.35;8.05;;;10.10;91.30;;;;;;5103472;28;19922;-65
2023/04/27 12:16:45;;;;;;;;;;;10.10;91.20;;;;;;5098798;28;20035;-65
2023/04/27 12:19:10;;;;;;;17.15;8.68;;;10.30;91.80;;;;;;5093252;28;20362;-65
2023/04/27 12:21:36;;;;;;;;;;;10.40;91.80;;;;;;5097898;28;20036;-65
2023/04/27 12:24:02;;;;;;;17.52;8.30;;;10.60;91.80;;;;;;5096347;28;20013;-65
2023/04/27 12:26:28;;;;;;;;;;;10.70;91.70;;;;;;5100406;28;20047;-66
2023/04/27 12:28:53;;;;;;;22.70;9.43;;;10.80;92.10;;;;;;5105491;28;19915;-66
2023/04/27 12:31:23;;;;;;;;;;;10.80;90.10;;;;;;5107384;27;20039;-66
2023/04/27 12:33:49;;;;;;;18.38;9.52;;;10.70;90.70;;;;;;5101851;28;19927;-66
2023/04/27 12:36:16;;;;;;;14.18;8.40;;;10.60;90.30;;;;;;5096812;28;20126;-66
2023/04/27 12:38:41;;;;;;;12.05;8.02;;;10.60;91.30;;;;;;5102202;27;20075;-66
2023/04/27 12:41:07;;;;;;;;;;;10.80;91.60;;;;;;5099791;27;20086;-66
2023/04/27 12:43:35;;;;;;;14.07;7.70;;;11.10;93.00;;;;;;5111138;27;19915;-64
2023/04/27 12:46:01;;;;;;;13.43;7.95;;;11.30;90.90;;;;;;5104851;27;20682;-67
2023/04/27 12:48:27;;;;;;;16.40;8.18;;;11.30;90.30;;;;;;5100304;27;20048;-65
2023/04/27 12:50:52;;;;;;;;;;;11.20;90.50;;;;;;5094360;27;20944;-65
2023/04/27 12:53:20;;;;;;;13.40;8.18;;;11.20;91.30;;;;;;5092843;28;20086;-66
2023/04/27 12:55:46;;;;;;;15.18;8.55;;;11.10;90.00;;;;;;5103339;27;20092;-66